Time;durP1;ratioP1;P1;durP2;ratioP2;P2;SDS_P1;SDS_P2;PMS_P1;PMS_P2;Temp;Humidity;BMP_temperature;BMP_pressure;BME280_temperature;BME280_humidity;BME280_pressure;Samples;Min_cycle;Max_cycle;Signal;HPM_P1;HPM_P2
2023/08/17 00:03:30;;;;;;;18.13;13.98;;;;;;;;;;9954391;29;20054;-82
2023/08/17 00:08:32;;;;;;;19.23;13.85;;;;;;;;;;9971490;29;20050;-83
2023/08/17 00:13:33;;;;;;;17.98;13.77;;;;;;;;;;9971399;29;20090;-82
2023/08/17 00:18:34;;;;;;;16.65;13.00;;;;;;;;;;9970155;29;20038;-82
2023/08/17 00:23:35;;;;;;;18.45;13.20;;;;;;;;;;9971480;29;20125;-82
2023/08/17 00:28:36;;;;;;;15.43;13.48;;;;;;;;;;9970854;29;20441;-82
2023/08/17 00:33:37;;;;;;;16.15;12.82;;;;;;;;;;9970299;29;20051;-83
2023/08/17 00:38:38;;;;;;;16.15;12.75;;;;;;;;;;9970994;29;20103;-83
2023/08/17 00:43:39;;;;;;;16.27;12.90;;;;;;;;;;9969783;29;20090;-81
2023/08/17 00:48:41;;;;;;;15.18;12.73;;;;;;;;;;9969139;29;20050;-83
2023/08/17 00:53:42;;;;;;;20.10;14.35;;;;;;;;;;9969617;29;20042;-82
2023/08/17 00:58:44;;;;;;;23.05;14.80;;;;;;;;;;9970649;29;20038;-81
2023/08/17 01:03:45;;;;;;;19.85;14.52;;;;;;;;;;9970246;29;20043;-82
2023/08/17 01:08:46;;;;;;;18.70;14.13;;;;;;;;;;9969917;29;20058;-82
2023/08/17 01:14:10;;;;;;;20.17;14.10;;;;;;;;;;9971265;29;20050;-81
2023/08/17 01:19:13;;;;;;;18.83;14.27;;;;;;;;;;9969668;29;20046;-82
2023/08/17 01:24:14;;;;;;;16.63;13.45;;;;;;;;;;9969937;29;20199;-83
2023/08/17 01:29:15;;;;;;;18.85;14.13;;;;;;;;;;9925051;24;20067;-83
2023/08/17 01:34:19;;;;;;;20.23;14.63;;;;;;;;;;9875575;30;20043;-82
2023/08/17 01:39:23;;;;;;;21.52;13.93;;;;;;;;;;9896537;30;20043;-82
2023/08/17 01:44:24;;;;;;;16.92;13.35;;;;;;;;;;9890942;29;20047;-82
2023/08/17 01:49:25;;;;;;;16.80;14.02;;;;;;;;;;9902387;29;20542;-82
2023/08/17 01:54:27;;;;;;;15.75;13.00;;;;;;;;;;9884894;30;20047;-82
2023/08/17 01:59:28;;;;;;;18.08;12.43;;;;;;;;;;9889714;30;20047;-81
2023/08/17 02:04:28;;;;;;;19.55;12.45;;;;;;;;;;9883321;30;20127;-82
2023/08/17 02:09:30;;;;;;;17.27;11.77;;;;;;;;;;9895327;30;20112;-83
2023/08/17 02:14:31;;;;;;;15.93;11.63;;;;;;;;;;9880699;30;20448;-82
2023/08/17 02:19:32;;;;;;;16.08;12.00;;;;;;;;;;9873534;30;20066;-82
2023/08/17 02:24:33;;;;;;;14.15;12.40;;;;;;;;;;9888326;30;20051;-82
2023/08/17 02:29:34;;;;;;;18.52;12.93;;;;;;;;;;9907058;29;20063;-82
2023/08/17 02:34:35;;;;;;;16.02;11.93;;;;;;;;;;9918181;29;20635;-82
2023/08/17 02:39:36;;;;;;;16.17;13.05;;;;;;;;;;9937508;29;20047;-82
2023/08/17 02:44:37;;;;;;;16.60;12.85;;;;;;;;;;9929245;29;20039;-82
2023/08/17 02:49:38;;;;;;;16.33;12.52;;;;;;;;;;9899925;29;20090;-82
2023/08/17 02:54:39;;;;;;;16.13;12.43;;;;;;;;;;9923180;29;20500;-83
2023/08/17 02:59:40;;;;;;;13.75;10.93;;;;;;;;;;9922907;29;20058;-82
2023/08/17 03:04:41;;;;;;;13.95;11.25;;;;;;;;;;9905350;29;20437;-82
2023/08/17 03:09:42;;;;;;;16.67;11.68;;;;;;;;;;9921698;29;20055;-82
2023/08/17 03:14:43;;;;;;;16.88;11.57;;;;;;;;;;9911196;29;20050;-82
2023/08/17 03:19:44;;;;;;;18.58;13.05;;;;;;;;;;9921342;29;20463;-83
2023/08/17 03:24:45;;;;;;;22.15;12.13;;;;;;;;;;9922540;29;20249;-82
2023/08/17 03:29:46;;;;;;;20.08;13.48;;;;;;;;;;9928757;29;20499;-82
2023/08/17 03:34:47;;;;;;;17.40;12.98;;;;;;;;;;9919798;29;20058;-82
2023/08/17 03:39:48;;;;;;;15.95;12.80;;;;;;;;;;9914588;29;20149;-82
2023/08/17 03:44:50;;;;;;;21.23;12.90;;;;;;;;;;9904792;29;20042;-84
2023/08/17 03:49:52;;;;;;;15.30;12.50;;;;;;;;;;9915408;29;20053;-82
2023/08/17 03:54:53;;;;;;;23.20;15.13;;;;;;;;;;9925501;29;20031;-82
2023/08/17 03:59:54;;;;;;;16.30;12.18;;;;;;;;;;9906734;29;20043;-84
2023/08/17 04:04:55;;;;;;;15.13;12.48;;;;;;;;;;9904301;29;20057;-83
2023/08/17 04:09:56;;;;;;;17.45;14.07;;;;;;;;;;9907754;29;20509;-82
2023/08/17 04:14:57;;;;;;;15.00;12.77;;;;;;;;;;9920269;29;20051;-82
2023/08/17 04:19:58;;;;;;;14.55;12.88;;;;;;;;;;9912097;29;20480;-82
2023/08/17 04:24:59;;;;;;;17.15;13.63;;;;;;;;;;9913406;29;20062;-83
2023/08/17 04:30:01;;;;;;;23.23;13.60;;;;;;;;;;9917402;29;20054;-83
2023/08/17 04:35:02;;;;;;;14.70;11.70;;;;;;;;;;9912936;29;20035;-82
2023/08/17 04:40:03;;;;;;;14.98;12.60;;;;;;;;;;9913668;29;20055;-82
2023/08/17 04:45:04;;;;;;;16.67;13.70;;;;;;;;;;9904301;29;20157;-82
2023/08/17 04:50:06;;;;;;;18.60;13.63;;;;;;;;;;9919837;29;20490;-84
2023/08/17 04:55:07;;;;;;;19.42;15.02;;;;;;;;;;9900211;29;20071;-82
2023/08/17 05:00:09;;;;;;;16.92;13.65;;;;;;;;;;9900804;29;20047;-82
2023/08/17 05:05:10;;;;;;;17.55;15.00;;;;;;;;;;9920346;29;20567;-83
2023/08/17 05:10:11;;;;;;;18.95;14.55;;;;;;;;;;9932019;29;20054;-83
2023/08/17 05:15:12;;;;;;;19.33;15.63;;;;;;;;;;9932224;29;20061;-82
2023/08/17 05:20:14;;;;;;;22.40;15.30;;;;;;;;;;9927573;29;20135;-84
2023/08/17 05:25:15;;;;;;;20.85;15.73;;;;;;;;;;9939250;29;20042;-83
2023/08/17 05:30:16;;;;;;;18.70;15.45;;;;;;;;;;9918166;29;20129;-81
2023/08/17 05:35:18;;;;;;;26.58;19.40;;;;;;;;;;9918392;29;20051;-83
2023/08/17 05:40:19;;;;;;;28.25;20.70;;;;;;;;;;9931738;29;20051;-82
2023/08/17 05:45:20;;;;;;;32.17;26.02;;;;;;;;;;9923737;29;20050;-82
2023/08/17 05:50:21;;;;;;;28.15;20.10;;;;;;;;;;9933747;29;20054;-84
2023/08/17 05:55:22;;;;;;;21.23;18.38;;;;;;;;;;9938553;29;20415;-86
2023/08/17 06:00:23;;;;;;;22.60;18.50;;;;;;;;;;9927987;29;20050;-87
2023/08/17 06:05:26;;;;;;;21.35;16.67;;;;;;;;;;9920340;29;20092;-88
2023/08/17 06:10:27;;;;;;;18.60;15.23;;;;;;;;;;9937442;29;20532;-88
2023/08/17 06:15:29;;;;;;;24.80;17.15;;;;;;;;;;9913316;29;20119;-87
2023/08/17 06:20:30;;;;;;;21.67;15.95;;;;;;;;;;9903248;29;20051;-87
2023/08/17 06:25:31;;;;;;;23.05;17.25;;;;;;;;;;9914661;29;20051;-88
2023/08/17 06:30:32;;;;;;;22.40;17.13;;;;;;;;;;9917888;29;20142;-87
2023/08/17 06:35:33;;;;;;;20.17;16.05;;;;;;;;;;9909269;29;20051;-87
2023/08/17 06:40:34;;;;;;;28.08;18.73;;;;;;;;;;9931439;29;20408;-88
2023/08/17 06:45:35;;;;;;;26.33;18.90;;;;;;;;;;9930544;29;20462;-88
2023/08/17 06:50:36;;;;;;;21.65;17.05;;;;;;;;;;9921578;29;20392;-88
2023/08/17 06:55:37;;;;;;;20.25;16.60;;;;;;;;;;9928678;29;20062;-87
2023/08/17 07:00:40;;;;;;;24.65;18.70;;;;;;;;;;9927517;29;20043;-87
2023/08/17 07:05:41;;;;;;;23.38;17.65;;;;;;;;;;9912078;29;20030;-88
2023/08/17 07:10:42;;;;;;;22.38;17.42;;;;;;;;;;9921444;29;20063;-87
2023/08/17 07:15:43;;;;;;;24.02;17.30;;;;;;;;;;9935275;29;20046;-88
2023/08/17 07:20:44;;;;;;;23.45;18.83;;;;;;;;;;9930554;29;20049;-88
2023/08/17 07:25:45;;;;;;;24.63;19.17;;;;;;;;;;9920353;29;20062;-87
2023/08/17 07:30:46;;;;;;;30.25;19.60;;;;;;;;;;9902549;29;20051;-88
2023/08/17 07:35:47;;;;;;;25.98;17.77;;;;;;;;;;9908775;29;20050;-88
2023/08/17 07:40:48;;;;;;;25.77;17.33;;;;;;;;;;9928334;29;20054;-89
2023/08/17 07:45:56;;;;;;;25.90;16.90;;;;;;;;;;9910739;29;20053;-88
2023/08/17 07:50:57;;;;;;;23.92;15.32;;;;;;;;;;9897666;29;20054;-88
2023/08/17 07:55:58;;;;;;;23.50;16.95;;;;;;;;;;9920784;29;20043;-89
2023/08/17 08:00:59;;;;;;;27.50;17.35;;;;;;;;;;9908096;29;20043;-88
2023/08/17 08:06:00;;;;;;;39.00;22.77;;;;;;;;;;9909621;29;20458;-87
2023/08/17 08:11:04;;;;;;;30.30;19.52;;;;;;;;;;9927984;29;20495;-87
2023/08/17 08:16:05;;;;;;;31.10;20.58;;;;;;;;;;9875679;29;20054;-88
2023/08/17 08:21:06;;;;;;;34.83;18.83;;;;;;;;;;9913094;29;20077;-88
2023/08/17 08:26:07;;;;;;;31.27;18.77;;;;;;;;;;9921594;29;20142;-88
2023/08/17 08:31:08;;;;;;;29.65;17.65;;;;;;;;;;9914188;29;20395;-87
2023/08/17 08:36:09;;;;;;;27.27;16.55;;;;;;;;;;9919744;29;20031;-89
2023/08/17 08:41:11;;;;;;;36.53;18.50;;;;;;;;;;9905665;29;20095;-89
2023/08/17 08:46:13;;;;;;;30.67;17.70;;;;;;;;;;9919868;29;20122;-88
2023/08/17 08:51:16;;;;;;;23.23;15.60;;;;;;;;;;9915049;29;20135;-88
2023/08/17 08:56:19;;;;;;;26.98;15.48;;;;;;;;;;9923528;29;20031;-89
2023/08/17 09:01:20;;;;;;;24.77;15.07;;;;;;;;;;9917986;29;20051;-88
2023/08/17 09:06:22;;;;;;;19.13;13.75;;;;;;;;;;9888870;29;20035;-87
2023/08/17 09:11:23;;;;;;;20.38;11.13;;;;;;;;;;9895651;29;20770;-87
2023/08/17 09:16:24;;;;;;;16.08;10.50;;;;;;;;;;9917411;29;20051;-87
2023/08/17 09:21:26;;;;;;;21.63;13.55;;;;;;;;;;9912718;29;20074;-87
2023/08/17 09:26:31;;;;;;;15.50;10.52;;;;;;;;;;9926548;29;20074;-87
2023/08/17 09:31:33;;;;;;;16.42;10.38;;;;;;;;;;9921779;29;20043;-86
2023/08/17 09:36:35;;;;;;;19.60;12.65;;;;;;;;;;9924130;29;20076;-86
2023/08/17 09:41:41;;;;;;;16.17;11.52;;;;;;;;;;9924211;29;20138;-86
2023/08/17 09:46:45;;;;;;;11.65;9.65;;;;;;;;;;9922355;29;20047;-85
2023/08/17 09:51:46;;;;;;;13.77;11.05;;;;;;;;;;9906422;29;20051;-86
2023/08/17 09:56:48;;;;;;;15.52;10.38;;;;;;;;;;9911525;29;20047;-86
2023/08/17 10:01:50;;;;;;;11.63;9.38;;;;;;;;;;9911511;29;20051;-86
2023/08/17 10:06:59;;;;;;;9.23;8.18;;;;;;;;;;9923604;29;20504;-86
2023/08/17 10:12:02;;;;;;;11.48;9.27;;;;;;;;;;9918565;29;20409;-86
2023/08/17 10:17:10;;;;;;;9.50;7.82;;;;;;;;;;9893645;29;20086;-86
2023/08/17 10:22:18;;;;;;;9.80;8.65;;;;;;;;;;9911836;29;20138;-86
2023/08/17 10:27:21;;;;;;;7.63;6.68;;;;;;;;;;9917096;29;20051;-87
2023/08/17 10:32:23;;;;;;;9.88;7.43;;;;;;;;;;9917884;29;20066;-87
2023/08/17 10:37:25;;;;;;;10.25;8.43;;;;;;;;;;9919441;29;20093;-87
2023/08/17 10:42:33;;;;;;;8.55;7.38;;;;;;;;;;9915270;29;20464;-87
2023/08/17 10:47:35;;;;;;;8.05;6.35;;;;;;;;;;9937052;29;20031;-87
2023/08/17 10:52:37;;;;;;;9.27;7.65;;;;;;;;;;9932618;29;20059;-84
2023/08/17 10:57:40;;;;;;;7.50;6.40;;;;;;;;;;9929624;29;20053;-86
2023/08/17 11:02:41;;;;;;;6.85;6.10;;;;;;;;;;9920119;29;20081;-86
2023/08/17 11:07:45;;;;;;;7.90;6.40;;;;;;;;;;9917299;29;20074;-88
2023/08/17 11:12:46;;;;;;;8.07;6.25;;;;;;;;;;9928010;29;20749;-87
2023/08/17 11:17:47;;;;;;;8.27;5.95;;;;;;;;;;9919675;29;20114;-87
2023/08/17 11:22:48;;;;;;;7.78;6.93;;;;;;;;;;9919384;29;20047;-86
2023/08/17 11:27:50;;;;;;;7.88;6.53;;;;;;;;;;9910586;29;20555;-86
2023/08/17 11:32:52;;;;;;;7.15;6.45;;;;;;;;;;9910237;29;20054;-85
2023/08/17 11:37:53;;;;;;;9.48;7.20;;;;;;;;;;9914858;29;20492;-85
2023/08/17 11:42:54;;;;;;;9.30;7.45;;;;;;;;;;9922999;29;20118;-86
2023/08/17 11:47:55;;;;;;;15.88;5.90;;;;;;;;;;9923141;29;20084;-83
2023/08/17 11:53:00;;;;;;;12.00;5.60;;;;;;;;;;9922016;29;20081;-88
2023/08/17 11:58:02;;;;;;;12.48;6.53;;;;;;;;;;9923872;29;20078;-87
2023/08/17 12:15:53;;;;;;;11.63;7.82;;;;;;;;;;10435137;27;20416;-89
2023/08/17 12:20:55;;;;;;;7.95;7.15;;;;;;;;;;10449180;28;20424;-89
2023/08/17 12:25:56;;;;;;;11.13;7.53;;;;;;;;;;10418093;27;20499;-89
2023/08/17 12:30:58;;;;;;;13.77;8.85;;;;;;;;;;10418153;28;20440;-89
2023/08/17 12:35:59;;;;;;;13.48;8.70;;;;;;;;;;10431731;28;20033;-88
2023/08/17 12:41:00;;;;;;;12.25;8.90;;;;;;;;;;10417292;28;20045;-92
2023/08/17 12:46:01;;;;;;;12.15;8.98;;;;;;;;;;10417404;28;20044;-89
2023/08/17 12:51:03;;;;;;;13.65;9.35;;;;;;;;;;10414884;28;20044;-88
2023/08/17 12:56:04;;;;;;;11.32;8.57;;;;;;;;;;10402507;28;20529;-89
2023/08/17 13:01:05;;;;;;;13.98;8.35;;;;;;;;;;10438966;28;20041;-88
2023/08/17 13:06:06;;;;;;;11.05;8.65;;;;;;;;;;10418278;28;20026;-89
2023/08/17 13:11:07;;;;;;;14.15;9.50;;;;;;;;;;10415340;28;20431;-88
2023/08/17 13:16:09;;;;;;;11.82;8.38;;;;;;;;;;10475362;28;20075;-90
2023/08/17 13:21:15;;;;;;;10.25;7.93;;;;;;;;;;10472344;28;20067;-90
2023/08/17 13:26:16;;;;;;;12.20;8.55;;;;;;;;;;10458968;28;20125;-90
2023/08/17 13:31:17;;;;;;;12.07;7.90;;;;;;;;;;10427581;28;20269;-90
2023/08/17 13:36:19;;;;;;;7.75;5.40;;;;;;;;;;10451754;28;20029;-89
2023/08/17 13:41:20;;;;;;;5.70;4.72;;;;;;;;;;10417119;28;20033;-89
2023/08/17 13:46:24;;;;;;;7.15;5.05;;;;;;;;;;10455230;28;20042;-88
2023/08/17 13:51:25;;;;;;;7.37;5.07;;;;;;;;;;10462931;28;20025;-91
2023/08/17 13:56:26;;;;;;;6.13;4.90;;;;;;;;;;10386271;28;20038;-88
2023/08/17 14:01:35;;;;;;;6.45;4.90;;;;;;;;;;10467805;28;20719;-88
2023/08/17 14:06:36;;;;;;;6.68;4.70;;;;;;;;;;10460680;28;20419;-90
2023/08/17 14:11:37;;;;;;;11.43;5.20;;;;;;;;;;10433873;28;20065;-89
2023/08/17 14:16:38;;;;;;;7.63;4.00;;;;;;;;;;10452512;28;20449;-88
2023/08/17 14:21:39;;;;;;;6.32;4.57;;;;;;;;;;10379878;28;20068;-90
2023/08/17 14:26:40;;;;;;;7.60;4.47;;;;;;;;;;10466883;28;20093;-91
2023/08/17 14:31:41;;;;;;;6.75;4.90;;;;;;;;;;10448862;28;20461;-89
2023/08/17 14:36:42;;;;;;;6.15;4.75;;;;;;;;;;10462675;28;20038;-87
2023/08/17 14:41:43;;;;;;;5.45;4.43;;;;;;;;;;10467515;28;20040;-88
2023/08/17 14:46:44;;;;;;;7.03;4.40;;;;;;;;;;10465877;27;20055;-89
2023/08/17 14:51:46;;;;;;;6.13;4.10;;;;;;;;;;10374224;28;20038;-86
2023/08/17 14:56:47;;;;;;;5.78;4.13;;;;;;;;;;10380105;28;20057;-89
2023/08/17 15:01:50;;;;;;;3.63;2.83;;;;;;;;;;10369259;28;20040;-90
2023/08/17 15:06:51;;;;;;;4.53;3.63;;;;;;;;;;10459461;28;20717;-93
2023/08/17 15:11:53;;;;;;;4.32;3.65;;;;;;;;;;10461518;27;20467;-92
2023/08/17 15:16:54;;;;;;;5.03;3.70;;;;;;;;;;10437056;28;20155;-91
2023/08/17 15:21:55;;;;;;;4.85;3.53;;;;;;;;;;10462549;27;20030;-90
2023/08/17 15:26:56;;;;;;;4.10;3.70;;;;;;;;;;10451764;28;20026;-92
2023/08/17 15:31:57;;;;;;;4.65;3.58;;;;;;;;;;10470714;27;20119;-94
2023/08/17 15:37:00;;;;;;;4.38;3.70;;;;;;;;;;10448374;27;20044;-90
2023/08/17 15:42:04;;;;;;;10.98;7.13;;;;;;;;;;10466346;28;20029;-93
2023/08/17 15:47:05;;;;;;;16.03;10.93;;;;;;;;;;10437884;28;20079;-90
2023/08/17 15:52:09;;;;;;;12.85;8.68;;;;;;;;;;10463666;28;20028;-93
2023/08/17 15:57:10;;;;;;;7.17;5.10;;;;;;;;;;10447836;28;20021;-90
2023/08/17 16:02:11;;;;;;;6.85;4.45;;;;;;;;;;10439921;28;20128;-91
2023/08/17 16:07:13;;;;;;;5.75;4.65;;;;;;;;;;10440955;28;20120;-91
2023/08/17 16:12:14;;;;;;;7.15;5.47;;;;;;;;;;10471475;28;20057;-92
2023/08/17 16:17:15;;;;;;;7.30;5.10;;;;;;;;;;10420805;28;20026;-89
2023/08/17 16:22:16;;;;;;;8.88;5.63;;;;;;;;;;10456911;28;20476;-91
2023/08/17 16:27:17;;;;;;;10.85;7.20;;;;;;;;;;10461882;28;20036;-91
2023/08/17 16:32:18;;;;;;;10.55;7.93;;;;;;;;;;10471201;28;20036;-89
2023/08/17 16:37:19;;;;;;;10.95;8.77;;;;;;;;;;10409757;28;20745;-93
2023/08/17 16:42:20;;;;;;;11.27;6.78;;;;;;;;;;10425190;28;20041;-92
2023/08/17 16:47:25;;;;;;;12.75;5.25;;;;;;;;;;10401264;28;20582;-87
2023/08/17 16:52:26;;;;;;;;;;;;;;;;;;10468851;27;20629;-88
2023/08/17 16:57:27;;;;;;;13.98;8.57;;;;;;;;;;10434078;27;19978;-88
2023/08/17 17:02:28;;;;;;;70.85;37.30;;;;;;;;;;10390994;28;20667;-91
2023/08/17 17:07:29;;;;;;;38.10;21.90;;;;;;;;;;10398876;27;20029;-88
2023/08/17 17:12:30;;;;;;;10.75;7.57;;;;;;;;;;10468854;28;20398;-89
2023/08/17 17:17:31;;;;;;;13.32;7.72;;;;;;;;;;10462799;27;20032;-90
2023/08/17 17:22:32;;;;;;;11.75;7.25;;;;;;;;;;10388734;28;20673;-90
2023/08/17 17:27:34;;;;;;;14.07;7.53;;;;;;;;;;10404746;28;20035;-90
2023/08/17 17:32:35;;;;;;;12.93;6.60;;;;;;;;;;10390320;28;20047;-92
2023/08/17 17:37:37;;;;;;;11.68;6.63;;;;;;;;;;10465082;28;20120;-89
2023/08/17 17:42:38;;;;;;;12.75;6.90;;;;;;;;;;10168090;22;20056;-89
2023/08/17 17:47:39;;;;;;;16.42;6.60;;;;;;;;;;10154248;28;20032;-91
2023/08/17 17:52:40;;;;;;;10.20;6.93;;;;;;;;;;10143953;28;20126;-90
2023/08/17 17:57:41;;;;;;;11.55;5.93;;;;;;;;;;10150155;28;20455;-88
2023/08/17 18:02:42;;;;;;;13.15;7.90;;;;;;;;;;10157254;28;20040;-91
2023/08/17 18:07:43;;;;;;;10.88;7.05;;;;;;;;;;10145725;28;20386;-93
2023/08/17 18:12:44;;;;;;;13.55;6.85;;;;;;;;;;10146507;28;20059;-90
2023/08/17 18:17:45;;;;;;;10.05;7.00;;;;;;;;;;10155927;28;20044;-90
2023/08/17 18:22:46;;;;;;;10.48;6.80;;;;;;;;;;10161649;28;20495;-90
2023/08/17 18:27:47;;;;;;;9.95;6.60;;;;;;;;;;10196283;28;20111;-91
2023/08/17 18:32:48;;;;;;;11.65;7.43;;;;;;;;;;10158761;28;20055;-91
2023/08/17 18:37:49;;;;;;;12.07;7.55;;;;;;;;;;10162362;28;20644;-90
2023/08/17 18:42:50;;;;;;;13.32;7.57;;;;;;;;;;10142221;28;20079;-90
2023/08/17 18:47:51;;;;;;;14.75;8.20;;;;;;;;;;10142020;28;20039;-90
2023/08/17 18:52:53;;;;;;;14.63;8.43;;;;;;;;;;10128025;28;20032;-92
2023/08/17 18:57:55;;;;;;;14.32;7.53;;;;;;;;;;10140947;28;20131;-90
2023/08/17 19:02:56;;;;;;;13.82;7.40;;;;;;;;;;10166142;28;20789;-91
2023/08/17 19:07:57;;;;;;;13.00;7.20;;;;;;;;;;10144133;28;20131;-90
2023/08/17 19:12:58;;;;;;;11.90;6.95;;;;;;;;;;10155204;28;20122;-91
2023/08/17 19:18:00;;;;;;;8.38;6.18;;;;;;;;;;10146803;28;20495;-91
2023/08/17 19:23:02;;;;;;;8.93;6.75;;;;;;;;;;10171954;28;20043;-92
2023/08/17 19:28:03;;;;;;;8.35;6.63;;;;;;;;;;10168888;28;20038;-92
2023/08/17 19:33:05;;;;;;;12.35;7.30;;;;;;;;;;10151567;28;20074;-93
2023/08/17 19:38:06;;;;;;;11.55;6.68;;;;;;;;;;10161687;28;20036;-93
2023/08/17 19:43:07;;;;;;;13.55;6.80;;;;;;;;;;10169370;28;20040;-92
2023/08/17 19:48:08;;;;;;;10.55;7.57;;;;;;;;;;10152889;28;20036;-92
2023/08/17 19:53:09;;;;;;;8.10;6.72;;;;;;;;;;10142490;28;20059;-94
2023/08/17 19:58:12;;;;;;;10.23;7.30;;;;;;;;;;10164611;28;20036;-93
2023/08/17 20:03:13;;;;;;;12.05;7.55;;;;;;;;;;10163368;28;20040;-94
2023/08/17 20:08:14;;;;;;;13.45;8.75;;;;;;;;;;10158019;28;20035;-94
2023/08/17 20:13:16;;;;;;;15.38;9.55;;;;;;;;;;10177131;28;20070;-92
2023/08/17 20:18:17;;;;;;;14.45;8.82;;;;;;;;;;10159088;28;20036;-92
2023/08/17 20:23:19;;;;;;;12.68;8.23;;;;;;;;;;10164476;28;20071;-92
2023/08/17 20:28:20;;;;;;;15.15;9.02;;;;;;;;;;10154499;29;20043;-90
2023/08/17 20:33:21;;;;;;;17.13;9.52;;;;;;;;;;10152556;28;20032;-90
2023/08/17 20:38:35;;;;;;;18.30;10.93;;;;;;;;;;10157666;28;20048;-93
2023/08/17 20:43:47;;;;;;;14.00;8.33;;;;;;;;;;10170331;28;20072;-93
2023/08/17 20:48:51;;;;;;;9.25;6.32;;;;;;;;;;10164585;28;20075;-91
2023/08/17 20:53:53;;;;;;;9.40;5.97;;;;;;;;;;10145367;28;20055;-91
2023/08/17 20:58:54;;;;;;;9.45;6.40;;;;;;;;;;10156274;28;20057;-92
2023/08/17 21:03:56;;;;;;;10.50;7.90;;;;;;;;;;10150332;28;20453;-90
2023/08/17 21:09:00;;;;;;;14.57;10.32;;;;;;;;;;10146549;28;20039;-93
2023/08/17 21:14:05;;;;;;;17.42;11.07;;;;;;;;;;10154059;28;20043;-91
2023/08/17 21:42:01;;;;;;;14.95;9.93;;;;;;;;;;10067744;29;20088;-91
2023/08/17 21:53:09;;;;;;;;;;;;;;;;;;;;;
2023/08/17 21:58:50;;;;;;;;;;;;;;;;;;;;;
2023/08/17 22:09:59;;;;;;;31.05;15.52;;;;;;;;;;10097000;29;20051;-92
2023/08/17 22:15:19;;;;;;;18.98;11.52;;;;;;;;;;10076022;28;20040;-91
2023/08/17 22:20:21;;;;;;;17.30;11.82;;;;;;;;;;10094459;28;20527;-89
2023/08/17 22:25:23;;;;;;;18.20;11.70;;;;;;;;;;10082735;28;20048;-93
2023/08/17 22:30:24;;;;;;;20.98;13.27;;;;;;;;;;10111936;28;20508;-91
2023/08/17 22:35:25;;;;;;;22.38;15.05;;;;;;;;;;10088351;28;20697;-89
2023/08/17 22:40:28;;;;;;;29.80;15.48;;;;;;;;;;10094524;28;20542;-90
2023/08/17 22:45:29;;;;;;;22.48;13.45;;;;;;;;;;10142818;28;20707;-89
2023/08/17 22:50:36;;;;;;;23.08;14.95;;;;;;;;;;10142501;28;20135;-90
2023/08/17 22:55:37;;;;;;;32.35;16.95;;;;;;;;;;10145337;28;20036;-90
2023/08/17 23:00:39;;;;;;;26.40;16.38;;;;;;;;;;10151752;28;20027;-92
2023/08/17 23:05:40;;;;;;;22.48;13.48;;;;;;;;;;10156328;28;20036;-91
2023/08/17 23:10:41;;;;;;;21.42;13.88;;;;;;;;;;10165592;28;20503;-91
2023/08/17 23:15:42;;;;;;;22.83;14.43;;;;;;;;;;10150964;28;20387;-90
2023/08/17 23:20:46;;;;;;;28.17;15.15;;;;;;;;;;10158840;28;20596;-91
2023/08/17 23:25:47;;;;;;;20.50;14.05;;;;;;;;;;10178405;29;20126;-90
2023/08/17 23:30:48;;;;;;;21.95;12.80;;;;;;;;;;10154174;28;20461;-90
2023/08/17 23:35:49;;;;;;;19.88;13.18;;;;;;;;;;10159178;28;20038;-89
2023/08/17 23:40:51;;;;;;;21.25;13.88;;;;;;;;;;10141408;28;20055;-90
2023/08/17 23:45:52;;;;;;;36.85;17.73;;;;;;;;;;10152406;28;20047;-90
2023/08/17 23:50:53;;;;;;;21.73;14.35;;;;;;;;;;10144063;28;20516;-90
2023/08/17 23:55:54;;;;;;;22.85;14.90;;;;;;;;;;10147122;28;20564;-90
